Strona główna
METAR-TAF:

METAR-TAF

Lotnisko :

Port lotniczy Lipawa

Lipawa, Łotwa

Szerokość geograficzna: 56-31N, Długość geograficzna: 021-05E, wysokość: 5 m

Aktualna obserwacja pogody

Raport powstał 15 minut temu, godzina 23:20 UTC
Wiatr 4 kt od wschód
Temperatura 14°C
Wilgotność 88%
Ciśnienie 1011 hPa
Widzialność 10 km lub więcej

METAR: EVLA 172320Z AUTO 08004KT 9999 SCT100/// BKN120/// BKN180/// 14/12 Q1011

czas: 02:35 (23:35 UTC)

Prognoza

Raport powstał 3 godziny i 32 minut temu, godzina 20:03 UTC
Prognoza ważna od 17 godzina 21 UTC do 18 godzina 21 UTC
Wiatr 7 kt od południowo-południowy wschód
Widzialność 10 km lub więcej
Brak chmur poniżej 1500 m i brak chmur cumulonimbus
Prawdopodobieństwo 40% :
Przejściowo
od 17 godzina 22 UTC do 18 godzina 05 UTC
Widzialność: 0600 m
na wysokości 100 ft
mgła

TAF: EVLA 172003Z 1721/1821 16007KT CAVOK PROB40 TEMPO 1722/1805 0600 FG VV001

Obserwacja i prognoza pogody dla ponad 4000 lotnisk (raport METAR i TAF).

Dostępne stacje oznaczono żółtymi i czerwonymi punktami na mapie.

Najedź kursorem aby zobaczyć nazwę stacji.

Kliknij aby zobaczyć obserwacje i prognozy pogody.

Aby zmienić mapę: kliknij na zielony przycisk z czarnym krzyżykiem, aby powiększyć; na zielony przycisk z myślnikiem, aby pomniejszyć; na zielone strzałki, aby przejść do map sąsiednich.


METAR-TAF: